Texas General Land Office
 Texas General Land Office
 George P. Bush, Commissioner

 Oil Spill Prevention
 & Response

Texas Automated Buoy System
Real Time Ocean Observations
Supporting Oil Spill Prevention and
Response since 1995
Geochemical and Environmental Research Group

TABS Buoy V -- Texas Automated Buoy System

TABS Buoy V Conditions at 10/21/2017 16:00 UTC (10/21/2017 11:00 CDT)
27° 53.7960'N   93° 35.8380'W
AA3900 DCS - sensor depth 2m
Anemometer height: 4m
Water Depth: 295 feet (89 meters)
Speed: 0.00 cm/s (0.00 kts) Direction: 90 °T (E) Water Temp: 0°C (32 °F)
System Voltage: 13.0 V Signal Strength: 0.0 dB Ping Count: 0
Wind: 5.1 m/s (9.9 kts)
          From 130°T (SE)
Air Temp: 26 °C (79 °F)
Relative Humidity:  110 %
Pressure: 1015.6 mb (29.99 inHg)
Waves: 1.4 m (4.5 ft) @ 7 sec
  


IMPORTANT: Notice to Mariners


Today's Velocity Data (download)

   Date   |  Time  |   East |   North|   Speed|  Dir | WaterT |
          |  (UTC) |  (cm/s)|  (cm/s)|  (cm/s)| (°T) |  (°C)  |
==========+========+========+========+========+======+========+
10/21/2017 00:00:00     0.00     0.00     0.00   90.0    0.0
10/21/2017 00:30:00     0.00     0.00     0.00   90.0    0.0
10/21/2017 01:00:00     0.00     0.00     0.00   90.0    0.0
10/21/2017 01:30:00     0.00     0.00     0.00   90.0    0.0
10/21/2017 02:00:00     0.00     0.00     0.00   90.0    0.0
10/21/2017 02:30:00     0.00     0.00     0.00   90.0    0.0
10/21/2017 03:00:00     0.00     0.00     0.00   90.0    0.0
10/21/2017 03:30:00     0.00     0.00     0.00   90.0    0.0
10/21/2017 04:00:00     0.00     0.00     0.00   90.0    0.0
10/21/2017 04:30:00     0.00     0.00     0.00   90.0    0.0
10/21/2017 05:00:00     0.00     0.00     0.00   90.0    0.0
10/21/2017 05:30:00     0.00     0.00     0.00   90.0    0.0
10/21/2017 06:00:00     0.00     0.00     0.00   90.0    0.0
10/21/2017 06:30:00     0.00     0.00     0.00   90.0    0.0
10/21/2017 07:00:00     0.00     0.00     0.00   90.0    0.0
10/21/2017 07:30:00     0.00     0.00     0.00   90.0    0.0
10/21/2017 08:00:00     0.00     0.00     0.00   90.0    0.0
10/21/2017 08:30:00     0.00     0.00     0.00   90.0    0.0
10/21/2017 09:00:00     0.00     0.00     0.00   90.0    0.0
10/21/2017 09:30:00     0.00     0.00     0.00   90.0    0.0
10/21/2017 10:00:00     0.00     0.00     0.00   90.0    0.0
10/21/2017 10:30:00     0.00     0.00     0.00   90.0    0.0
10/21/2017 11:00:00     0.00     0.00     0.00   90.0    0.0
10/21/2017 11:30:00     0.00     0.00     0.00   90.0    0.0
10/21/2017 12:00:00     0.00     0.00     0.00   90.0    0.0
10/21/2017 12:30:00     0.00     0.00     0.00   90.0    0.0
10/21/2017 13:00:00     0.00     0.00     0.00   90.0    0.0
10/21/2017 13:30:00     0.00     0.00     0.00   90.0    0.0
10/21/2017 14:00:00     0.00     0.00     0.00   90.0    0.0
10/21/2017 14:30:00     0.00     0.00     0.00   90.0    0.0
10/21/2017 15:00:00     0.00     0.00     0.00   90.0    0.0
10/21/2017 15:30:00     0.00     0.00     0.00   90.0    0.0
10/21/2017 16:00:00     0.00     0.00     0.00   90.0    0.0



       
 

Today's Wave Data    


   Date   |  Time  |Sig Wave Ht| Peak Period|
          |  (UTC) | (meters)  |    (sec)   |
==========+========+===========+============+
10/21/2017 00:20:58      1.7        8
10/21/2017 01:20:58      1.7        7
10/21/2017 02:20:58      1.7        8
10/21/2017 03:20:58      1.6        7
10/21/2017 04:20:58      1.8        7
10/21/2017 05:20:58      1.9        7
10/21/2017 06:20:58      1.7        7
10/21/2017 07:20:58      1.7        6
10/21/2017 08:20:58      1.6        7
10/21/2017 09:20:58      1.6        7
10/21/2017 10:20:58      1.5        7
10/21/2017 11:20:59      1.3        6
10/21/2017 12:20:58      1.5        6
10/21/2017 13:20:58      1.3        6
10/21/2017 14:20:58      1.4        6
10/21/2017 15:20:58      1.3        7
10/21/2017 16:20:58      1.4        7
       
 

Today's Temperature - Salinity Data     (Download)


   Date   |  Time  |   Temp |   Cond |Salinity| Density|SoundVel|
          |  (UTC) |   (°C) | (ms/cm)|        | kg/m^3 |  (m/s) |
==========+========+========+========+========+========+========+
10/21/2017 00:00:00    27.55    56.52    35.55     0.00     0.00
10/21/2017 00:30:00    27.56    56.59    35.59     0.00     0.00
10/21/2017 01:00:00    27.56    56.62    35.61     0.00     0.00
10/21/2017 01:30:00    27.58    56.66    35.63     0.00     0.00
10/21/2017 02:00:00    27.56    56.62    35.62     0.00     0.00
10/21/2017 02:30:00    27.56    56.65    35.64     0.00     0.00
10/21/2017 03:00:00    27.56    56.69    35.66     0.00     0.00
10/21/2017 03:30:00    27.56    56.71    35.67     0.00     0.00
10/21/2017 04:00:00    27.56    56.71    35.68     0.00     0.00
10/21/2017 04:30:00    27.57    56.75    35.70     0.00     0.00
10/21/2017 05:00:00    27.56    56.74    35.70     0.00     0.00
10/21/2017 05:30:00    27.57    56.77    35.71     0.00     0.00
10/21/2017 06:00:00    27.58    56.80    35.73     0.00     0.00
10/21/2017 06:30:00    27.58    56.82    35.74     0.00     0.00
10/21/2017 07:00:00    27.58    56.84    35.76     0.00     0.00
10/21/2017 07:30:00    27.61    56.91    35.78     0.00     0.00
10/21/2017 08:00:00    27.58    56.86    35.77     0.00     0.00
10/21/2017 08:30:00    27.60    56.92    35.79     0.00     0.00
10/21/2017 09:00:00    27.59    56.90    35.79     0.00     0.00
10/21/2017 09:30:00    27.60    56.92    35.80     0.00     0.00
10/21/2017 10:00:00    27.58    56.90    35.80     0.00     0.00
10/21/2017 10:30:00    27.58    56.90    35.79     0.00     0.00
10/21/2017 11:00:00    27.58    56.90    35.80     0.00     0.00
10/21/2017 11:30:00    27.59    56.91    35.80     0.00     0.00
10/21/2017 12:00:00    27.57    56.90    35.80     0.00     0.00
10/21/2017 12:30:00    27.58    56.91    35.80     0.00     0.00
10/21/2017 13:00:00    27.59    56.93    35.81     0.00     0.00
10/21/2017 13:30:00    27.59    56.93    35.81     0.00     0.00
10/21/2017 14:00:00    27.60    56.94    35.81     0.00     0.00
10/21/2017 14:30:00    27.60    56.95    35.81     0.00     0.00
10/21/2017 15:00:00    27.61    56.95    35.81     0.00     0.00
10/21/2017 15:30:00    27.63    56.98    35.82     0.00     0.00
10/21/2017 16:00:00    27.66    57.02    35.82     0.00     0.00